Time;durP1;ratioP1;P1;durP2;ratioP2;P2;SDS_P1;SDS_P2;PMS_P1;PMS_P2;Temp;Humidity;BMP_temperature;BMP_pressure;BME280_temperature;BME280_humidity;BME280_pressure;Samples;Min_cycle;Max_cycle;Signal;HPM_P1;HPM_P2
2022/01/10 00:00:58;;;;;;;8.32;5.55;;;;;;;;;;5081320;28;20091;-49
2022/01/10 00:03:24;;;;;;;6.72;4.78;;;;;;;;;;5094657;28;20066;-49
2022/01/10 00:05:50;;;;;;;7.22;5.15;;;;;;;;;;5104282;28;20035;-49
2022/01/10 00:08:16;;;;;;;11.30;5.60;;;;;;;;;;5101899;28;20038;-50
2022/01/10 00:10:43;;;;;;;8.93;5.53;;;;;;;;;;5067923;28;20430;-50
2022/01/10 00:13:10;;;;;;;7.88;5.10;;;;;;;;;;5082802;28;20021;-47
2022/01/10 00:15:37;;;;;;;6.55;4.97;;;;;;;;;;5083821;28;20042;-49
2022/01/10 00:18:03;;;;;;;8.45;5.00;;;;;;;;;;5084129;28;20024;-48
2022/01/10 00:20:30;;;;;;;7.00;4.68;;;;;;;;;;5083471;28;20035;-48
2022/01/10 00:22:56;;;;;;;7.40;5.30;;;;;;;;;;5082699;28;20089;-48
2022/01/10 00:25:23;;;;;;;8.30;5.28;;;;;;;;;;5065265;28;20032;-49
2022/01/10 00:27:53;;;;;;;7.40;5.30;;;;;;;;;;5065923;28;20123;-47
2022/01/10 00:30:19;;;;;;;7.57;4.97;;;;;;;;;;5083315;28;20406;-48
2022/01/10 00:32:47;;;;;;;8.02;5.18;;;;;;;;;;5096325;28;20019;-50
2022/01/10 00:35:14;;;;;;;7.25;5.15;;;;;;;;;;5104471;28;20042;-49
2022/01/10 00:37:43;;;;;;;7.80;5.07;;;;;;;;;;5104660;28;20030;-47
2022/01/10 00:40:10;;;;;;;6.25;4.57;;;;;;;;;;5103610;28;20027;-48
2022/01/10 00:42:36;;;;;;;9.15;4.63;;;;;;;;;;5082878;28;20036;-48
2022/01/10 00:45:12;;;;;;;6.45;4.20;;;;;;;;;;5083664;28;20035;-47
2022/01/10 00:47:38;;;;;;;6.90;4.40;;;;;;;;;;5082420;28;20016;-48
2022/01/10 00:50:05;;;;;;;7.93;4.80;;;;;;;;;;5083772;28;20077;-48
2022/01/10 00:52:31;;;;;;;8.13;5.15;;;;;;;;;;5082233;28;20032;-49
2022/01/10 00:54:57;;;;;;;6.97;5.10;;;;;;;;;;5083208;28;20425;-48
2022/01/10 00:57:24;;;;;;;9.73;5.38;;;;;;;;;;5085525;28;20080;-47
2022/01/10 00:59:50;;;;;;;10.30;6.47;;;;;;;;;;5087052;28;20396;-47
2022/01/10 01:02:16;;;;;;;8.05;5.53;;;;;;;;;;5095672;28;20085;-48
2022/01/10 01:04:42;;;;;;;9.73;5.78;;;;;;;;;;5105896;28;20066;-48
2022/01/10 01:07:08;;;;;;;10.23;5.80;;;;;;;;;;5088526;28;20255;-47
2022/01/10 01:09:35;;;;;;;7.88;5.68;;;;;;;;;;5107359;28;20161;-48
2022/01/10 01:17:14;;;;;;;9.15;6.03;;;;;;;;;;5099958;28;20031;-48
2022/01/10 01:20:08;;;;;;;8.50;5.95;;;;;;;;;;5107149;28;20030;-48
2022/01/10 01:25:19;;;;;;;7.85;5.35;;;;;;;;;;5106510;28;20034;-48
2022/01/10 01:27:45;;;;;;;8.57;5.50;;;;;;;;;;5048378;28;20021;-48
2022/01/10 01:30:11;;;;;;;7.53;5.28;;;;;;;;;;5048374;28;20058;-48
2022/01/10 01:32:38;;;;;;;9.40;5.75;;;;;;;;;;5048313;28;20028;-48
2022/01/10 01:35:07;;;;;;;8.30;5.32;;;;;;;;;;5066410;28;20020;-48
2022/01/10 01:37:35;;;;;;;7.78;5.57;;;;;;;;;;5070835;28;20158;-47
2022/01/10 01:40:01;;;;;;;8.85;5.47;;;;;;;;;;5088760;28;20028;-48
2022/01/10 01:42:40;;;;;;;9.23;5.70;;;;;;;;;;5087321;28;20031;-49
2022/01/10 01:45:08;;;;;;;8.95;5.78;;;;;;;;;;5086517;28;20024;-47
2022/01/10 01:47:34;;;;;;;8.63;5.35;;;;;;;;;;5085141;28;20428;-48
2022/01/10 01:50:00;;;;;;;8.20;5.63;;;;;;;;;;5068209;28;20514;-49
2022/01/10 01:52:28;;;;;;;10.75;6.30;;;;;;;;;;5085956;28;20040;-49
2022/01/10 01:54:55;;;;;;;8.38;6.03;;;;;;;;;;5094406;28;20038;-47
2022/01/10 01:57:21;;;;;;;10.45;5.70;;;;;;;;;;5095964;28;20043;-50
2022/01/10 01:59:48;;;;;;;9.75;6.10;;;;;;;;;;5103276;28;20560;-49
2022/01/10 02:02:14;;;;;;;9.57;5.78;;;;;;;;;;5087999;28;20031;-48
2022/01/10 02:04:41;;;;;;;10.18;6.13;;;;;;;;;;5086868;28;20044;-48
2022/01/10 02:07:07;;;;;;;9.55;5.57;;;;;;;;;;5089929;28;20095;-47
2022/01/10 02:09:33;;;;;;;9.43;5.95;;;;;;;;;;5106531;28;20030;-48
2022/01/10 02:12:01;;;;;;;10.32;5.90;;;;;;;;;;5091978;28;20031;-49
2022/01/10 02:14:28;;;;;;;8.10;5.05;;;;;;;;;;5086491;28;20503;-47
2022/01/10 02:16:56;;;;;;;10.13;6.22;;;;;;;;;;5098294;28;20130;-47
2022/01/10 02:19:22;;;;;;;10.57;6.45;;;;;;;;;;5086217;28;20601;-47
2022/01/10 02:21:50;;;;;;;9.07;6.25;;;;;;;;;;5086116;28;20415;-49
2022/01/10 02:24:16;;;;;;;10.73;6.18;;;;;;;;;;5099332;28;20055;-50
2022/01/10 02:26:46;;;;;;;10.52;6.38;;;;;;;;;;5090225;28;20032;-49
2022/01/10 02:29:13;;;;;;;9.60;5.78;;;;;;;;;;5086050;28;20035;-47
2022/01/10 02:31:40;;;;;;;9.75;6.15;;;;;;;;;;5086014;28;20295;-47
2022/01/10 02:34:06;;;;;;;9.80;6.20;;;;;;;;;;5084337;28;20477;-48
2022/01/10 02:36:33;;;;;;;9.40;6.07;;;;;;;;;;5104265;28;20471;-49
2022/01/10 02:39:04;;;;;;;10.32;5.80;;;;;;;;;;5104084;28;20059;-49
2022/01/10 02:41:33;;;;;;;9.25;5.57;;;;;;;;;;5098941;28;20024;-47
2022/01/10 02:44:00;;;;;;;9.40;6.03;;;;;;;;;;5105024;28;20035;-50
2022/01/10 02:46:26;;;;;;;10.60;6.55;;;;;;;;;;5086292;28;20519;-48
2022/01/10 02:48:54;;;;;;;9.40;6.40;;;;;;;;;;5085660;28;20107;-48
2022/01/10 02:51:20;;;;;;;9.48;6.32;;;;;;;;;;5084000;28;20057;-48
2022/01/10 02:53:46;;;;;;;10.57;6.20;;;;;;;;;;5085802;28;20115;-49
2022/01/10 02:56:12;;;;;;;10.95;6.78;;;;;;;;;;5084355;28;20407;-48
2022/01/10 02:58:38;;;;;;;9.95;6.03;;;;;;;;;;5085582;28;20032;-48
2022/01/10 03:01:05;;;;;;;9.35;6.32;;;;;;;;;;5086926;28;20031;-47
2022/01/10 03:03:31;;;;;;;10.65;6.68;;;;;;;;;;5105425;28;20035;-47
2022/01/10 03:05:57;;;;;;;9.70;6.43;;;;;;;;;;5106334;28;20045;-47
2022/01/10 03:08:25;;;;;;;9.70;6.05;;;;;;;;;;5105383;28;20484;-48
2022/01/10 03:10:51;;;;;;;9.10;6.20;;;;;;;;;;5099703;28;20229;-48
2022/01/10 03:13:18;;;;;;;9.25;5.75;;;;;;;;;;5105633;28;20521;-47
2022/01/10 03:15:44;;;;;;;9.27;6.03;;;;;;;;;;5104539;28;20039;-48
2022/01/10 03:18:10;;;;;;;9.85;5.95;;;;;;;;;;5103929;28;20036;-47
2022/01/10 03:20:36;;;;;;;14.80;8.63;;;;;;;;;;5104634;28;20028;-48
2022/01/10 03:23:03;;;;;;;12.30;7.22;;;;;;;;;;5105252;28;20521;-48
2022/01/10 03:25:30;;;;;;;14.88;7.47;;;;;;;;;;5103575;28;20490;-48
2022/01/10 03:27:57;;;;;;;13.25;7.15;;;;;;;;;;5085766;28;20583;-47
2022/01/10 03:30:24;;;;;;;13.40;7.10;;;;;;;;;;5098843;28;20391;-47
2022/01/10 03:32:51;;;;;;;11.18;6.95;;;;;;;;;;5105459;28;20039;-47
2022/01/10 03:35:17;;;;;;;10.10;5.85;;;;;;;;;;5104969;28;20411;-48
2022/01/10 03:37:43;;;;;;;9.77;6.18;;;;;;;;;;5105248;28;20115;-47
2022/01/10 03:40:10;;;;;;;10.15;6.70;;;;;;;;;;5103319;28;20756;-48
2022/01/10 03:42:36;;;;;;;9.18;5.93;;;;;;;;;;5085172;28;20418;-47
2022/01/10 03:45:03;;;;;;;11.30;6.22;;;;;;;;;;5084939;28;20031;-47
2022/01/10 03:47:30;;;;;;;11.00;5.80;;;;;;;;;;5085240;28;20024;-48
2022/01/10 03:49:57;;;;;;;9.15;5.22;;;;;;;;;;5084267;28;20031;-47
2022/01/10 03:52:25;;;;;;;9.27;5.40;;;;;;;;;;5084280;28;20442;-47
2022/01/10 03:54:51;;;;;;;8.50;5.72;;;;;;;;;;5084867;28;20028;-48
2022/01/10 03:57:17;;;;;;;9.50;5.40;;;;;;;;;;5083226;28;20028;-47
2022/01/10 03:59:43;;;;;;;6.95;4.63;;;;;;;;;;5098739;28;20024;-47
2022/01/10 04:02:10;;;;;;;6.97;4.43;;;;;;;;;;5104773;28;20032;-46
2022/01/10 04:04:38;;;;;;;7.70;4.65;;;;;;;;;;5105023;28;20399;-47
2022/01/10 04:07:04;;;;;;;8.38;5.05;;;;;;;;;;5104647;28;20542;-48
2022/01/10 04:09:30;;;;;;;6.50;4.20;;;;;;;;;;5098952;28;20028;-49
2022/01/10 04:11:56;;;;;;;7.60;4.38;;;;;;;;;;5085024;28;20020;-47
2022/01/10 04:14:22;;;;;;;6.50;4.20;;;;;;;;;;5084245;28;20035;-47
2022/01/10 04:16:49;;;;;;;5.28;3.65;;;;;;;;;;5083889;28;20020;-48
2022/01/10 04:19:16;;;;;;;5.07;3.30;;;;;;;;;;5084928;28;20032;-48
2022/01/10 04:21:42;;;;;;;6.10;3.30;;;;;;;;;;5104442;28;20020;-49
2022/01/10 04:24:08;;;;;;;5.30;3.17;;;;;;;;;;5101379;28;20046;-48
2022/01/10 04:26:35;;;;;;;4.82;3.10;;;;;;;;;;5093390;28;20503;-47
2022/01/10 04:29:01;;;;;;;4.65;2.70;;;;;;;;;;5084499;28;20020;-47
2022/01/10 04:31:27;;;;;;;3.80;2.25;;;;;;;;;;5086235;28;20024;-49
2022/01/10 04:33:53;;;;;;;4.25;2.63;;;;;;;;;;5088637;28;20098;-49
2022/01/10 04:36:20;;;;;;;3.97;2.63;;;;;;;;;;5108423;28;20041;-48
2022/01/10 04:38:46;;;;;;;4.55;2.97;;;;;;;;;;5108648;28;20448;-48
2022/01/10 04:41:13;;;;;;;3.67;2.42;;;;;;;;;;5100254;28;20027;-49
2022/01/10 04:43:40;;;;;;;3.53;2.13;;;;;;;;;;5099324;28;20398;-47
2022/01/10 04:46:07;;;;;;;4.32;2.20;;;;;;;;;;5069702;28;20097;-47
2022/01/10 04:48:33;;;;;;;4.72;2.70;;;;;;;;;;5086597;28;20395;-47
2022/01/10 04:53:26;;;;;;;5.72;3.95;;;;;;;;;;5088029;28;20059;-49
2022/01/10 04:55:52;;;;;;;5.82;3.75;;;;;;;;;;5089283;28;20032;-48
2022/01/10 04:58:19;;;;;;;7.05;4.85;;;;;;;;;;5087900;28;20032;-48
2022/01/10 05:00:45;;;;;;;7.70;4.90;;;;;;;;;;5087794;28;20024;-49
2022/01/10 05:03:11;;;;;;;8.68;4.90;;;;;;;;;;5088991;28;20032;-47
2022/01/10 05:05:37;;;;;;;7.32;5.22;;;;;;;;;;5097819;28;20034;-48
2022/01/10 05:08:03;;;;;;;8.52;5.30;;;;;;;;;;5105194;28;20084;-48
2022/01/10 05:10:29;;;;;;;7.30;4.75;;;;;;;;;;5104114;28;20047;-47
2022/01/10 05:12:56;;;;;;;8.60;5.13;;;;;;;;;;5087717;28;20036;-48
2022/01/10 05:15:23;;;;;;;8.20;5.38;;;;;;;;;;5087331;28;20032;-48
2022/01/10 05:17:49;;;;;;;8.68;5.35;;;;;;;;;;5087473;28;20138;-48
2022/01/10 05:20:15;;;;;;;8.40;5.43;;;;;;;;;;5104484;28;20019;-48
2022/01/10 05:22:41;;;;;;;10.55;5.65;;;;;;;;;;5108461;28;20468;-49
2022/01/10 05:25:07;;;;;;;6.70;4.50;;;;;;;;;;5108114;28;20020;-48
2022/01/10 05:27:34;;;;;;;7.90;4.82;;;;;;;;;;5069514;28;20161;-47
2022/01/10 05:30:00;;;;;;;7.22;4.50;;;;;;;;;;5086225;28;20031;-48
2022/01/10 05:32:26;;;;;;;10.07;5.10;;;;;;;;;;5086835;28;20069;-47
2022/01/10 05:34:52;;;;;;;10.75;5.57;;;;;;;;;;5087136;28;20024;-49
2022/01/10 05:37:18;;;;;;;9.15;5.30;;;;;;;;;;5094749;28;20105;-48
2022/01/10 05:39:44;;;;;;;6.22;4.15;;;;;;;;;;5091281;28;20499;-48
2022/01/10 05:42:10;;;;;;;9.75;4.93;;;;;;;;;;5086983;28;20103;-48
2022/01/10 05:44:37;;;;;;;9.48;5.43;;;;;;;;;;5086730;28;20103;-47
2022/01/10 05:47:04;;;;;;;10.48;5.93;;;;;;;;;;5087051;28;20032;-47
2022/01/10 05:49:34;;;;;;;9.50;5.50;;;;;;;;;;5083980;28;20044;-48
2022/01/10 05:52:02;;;;;;;9.43;5.03;;;;;;;;;;5086814;28;20036;-47
2022/01/10 05:54:29;;;;;;;10.80;5.90;;;;;;;;;;5086505;28;20406;-47
2022/01/10 05:56:55;;;;;;;8.02;5.85;;;;;;;;;;5086286;28;20123;-49
2022/01/10 05:59:22;;;;;;;7.00;4.82;;;;;;;;;;5085487;28;20568;-47
2022/01/10 06:01:48;;;;;;;6.95;4.85;;;;;;;;;;5086947;28;20069;-47
2022/01/10 06:04:15;;;;;;;6.35;4.70;;;;;;;;;;5086485;28;20016;-49
2022/01/10 06:06:41;;;;;;;11.88;4.63;;;;;;;;;;5085237;28;20046;-47
2022/01/10 06:09:07;;;;;;;6.65;4.75;;;;;;;;;;5094404;28;20031;-47
2022/01/10 06:11:34;;;;;;;7.80;4.88;;;;;;;;;;5096624;28;20044;-48
2022/01/10 06:14:00;;;;;;;6.22;4.40;;;;;;;;;;5088114;28;20024;-49
2022/01/10 06:16:28;;;;;;;6.80;4.63;;;;;;;;;;5086182;28;20040;-47
2022/01/10 06:18:54;;;;;;;6.95;4.45;;;;;;;;;;5087301;28;20031;-48
2022/01/10 06:21:20;;;;;;;6.97;4.68;;;;;;;;;;5087590;28;20028;-48
2022/01/10 06:23:46;;;;;;;6.20;4.05;;;;;;;;;;5069019;28;20081;-48
2022/01/10 06:26:12;;;;;;;6.07;4.07;;;;;;;;;;5087246;28;20793;-48
2022/01/10 06:28:38;;;;;;;7.45;4.43;;;;;;;;;;5086717;28;20530;-48
2022/01/10 06:31:04;;;;;;;5.60;4.05;;;;;;;;;;5089458;28;20476;-48
2022/01/10 06:33:30;;;;;;;5.53;3.97;;;;;;;;;;5087449;28;20024;-48
2022/01/10 06:35:56;;;;;;;8.00;3.58;;;;;;;;;;5087129;28;20543;-47
2022/01/10 06:38:23;;;;;;;4.32;3.33;;;;;;;;;;5086992;28;20028;-51
2022/01/10 06:40:49;;;;;;;3.47;2.97;;;;;;;;;;5098157;28;20024;-49
2022/01/10 06:43:15;;;;;;;4.88;3.25;;;;;;;;;;5087337;28;20588;-47
2022/01/10 06:45:41;;;;;;;3.97;3.05;;;;;;;;;;5069561;28;20679;-50
2022/01/10 06:48:07;;;;;;;4.13;3.03;;;;;;;;;;5087423;28;20403;-47
2022/01/10 06:50:33;;;;;;;4.28;3.25;;;;;;;;;;5086630;28;20032;-48
2022/01/10 06:53:00;;;;;;;6.30;4.18;;;;;;;;;;5094847;28;20028;-51
2022/01/10 06:55:27;;;;;;;6.88;3.97;;;;;;;;;;5086202;28;20132;-48
2022/01/10 06:57:54;;;;;;;6.30;4.00;;;;;;;;;;5087008;28;20081;-47
2022/01/10 07:00:20;;;;;;;6.50;4.70;;;;;;;;;;5093718;28;20494;-51
2022/01/10 07:02:46;;;;;;;12.68;6.00;;;;;;;;;;5085874;28;20476;-50
2022/01/10 07:05:12;;;;;;;10.57;6.43;;;;;;;;;;5085217;28;20125;-48
2022/01/10 07:07:38;;;;;;;10.18;6.20;;;;;;;;;;5085995;28;20372;-48
2022/01/10 07:10:05;;;;;;;9.95;6.07;;;;;;;;;;5085697;28;20023;-48
2022/01/10 07:12:31;;;;;;;7.22;4.95;;;;;;;;;;5083002;28;20039;-47
2022/01/10 07:14:57;;;;;;;9.00;5.00;;;;;;;;;;5085777;28;20032;-47
2022/01/10 07:17:23;;;;;;;6.70;4.93;;;;;;;;;;5106958;28;20039;-48
2022/01/10 07:19:49;;;;;;;7.40;4.55;;;;;;;;;;5085084;28;20164;-47
2022/01/10 07:22:15;;;;;;;6.32;4.10;;;;;;;;;;5082100;28;20051;-47
2022/01/10 07:24:42;;;;;;;5.70;3.72;;;;;;;;;;5097115;28;20646;-47
2022/01/10 07:27:08;;;;;;;6.00;3.58;;;;;;;;;;5090765;28;20279;-47
2022/01/10 07:29:35;;;;;;;4.97;3.70;;;;;;;;;;5085926;28;20134;-47
2022/01/10 07:32:01;;;;;;;5.32;3.65;;;;;;;;;;5086345;28;20042;-48
2022/01/10 07:34:27;;;;;;;6.55;4.22;;;;;;;;;;5090538;28;20069;-49
2022/01/10 07:36:53;;;;;;;5.18;3.88;;;;;;;;;;5106810;28;20067;-48
2022/01/10 07:39:20;;;;;;;4.68;3.33;;;;;;;;;;5102406;28;20116;-47
2022/01/10 07:41:46;;;;;;;3.85;2.80;;;;;;;;;;5092073;28;20403;-48
2022/01/10 07:44:12;;;;;;;5.43;3.55;;;;;;;;;;5086454;28;20031;-47
2022/01/10 07:46:39;;;;;;;6.50;4.00;;;;;;;;;;5085554;28;20025;-50
2022/01/10 07:49:06;;;;;;;8.35;4.32;;;;;;;;;;5085798;28;20024;-47
2022/01/10 07:51:32;;;;;;;5.22;3.50;;;;;;;;;;5084939;28;20510;-51
2022/01/10 07:53:59;;;;;;;4.60;3.40;;;;;;;;;;5086033;28;20193;-47
2022/01/10 07:56:25;;;;;;;5.95;3.67;;;;;;;;;;5085256;28;20107;-50
2022/01/10 07:58:52;;;;;;;6.28;3.88;;;;;;;;;;5085507;28;20265;-48
2022/01/10 08:01:20;;;;;;;5.25;3.78;;;;;;;;;;5084522;28;20028;-48
2022/01/10 08:03:49;;;;;;;5.95;3.80;;;;;;;;;;5084621;28;20032;-47
2022/01/10 08:06:15;;;;;;;5.30;3.95;;;;;;;;;;5086683;28;20028;-47
2022/01/10 08:08:42;;;;;;;4.95;3.03;;;;;;;;;;5089926;28;20564;-48
2022/01/10 08:11:08;;;;;;;4.45;3.15;;;;;;;;;;5088619;28;20079;-49
2022/01/10 08:13:34;;;;;;;5.32;3.33;;;;;;;;;;5089917;28;20035;-48
2022/01/10 08:16:01;;;;;;;4.63;3.40;;;;;;;;;;5088048;28;20104;-50
2022/01/10 08:18:30;;;;;;;4.97;3.45;;;;;;;;;;5071886;28;20056;-49
2022/01/10 08:20:56;;;;;;;6.95;3.30;;;;;;;;;;5085026;28;20039;-47
2022/01/10 08:23:22;;;;;;;4.63;3.13;;;;;;;;;;5086763;28;20028;-47
2022/01/10 08:25:49;;;;;;;5.40;3.50;;;;;;;;;;5089493;28;20020;-48
2022/01/10 08:28:15;;;;;;;5.43;3.15;;;;;;;;;;5089843;28;20085;-48
2022/01/10 08:30:42;;;;;;;4.13;3.13;;;;;;;;;;5088412;28;20529;-49
2022/01/10 08:33:08;;;;;;;5.47;3.00;;;;;;;;;;5092276;28;20399;-49
2022/01/10 08:35:34;;;;;;;4.97;3.00;;;;;;;;;;5090353;28;20043;-49
2022/01/10 08:38:00;;;;;;;4.72;3.05;;;;;;;;;;5090771;28;20023;-48
2022/01/10 08:40:26;;;;;;;5.80;2.88;;;;;;;;;;5087648;28;20047;-52
2022/01/10 08:42:52;;;;;;;4.55;2.70;;;;;;;;;;5090751;28;20525;-47
2022/01/10 08:45:18;;;;;;;3.20;2.35;;;;;;;;;;5089661;28;20399;-51
2022/01/10 08:47:46;;;;;;;4.03;2.65;;;;;;;;;;5089504;28;20020;-51
2022/01/10 08:50:13;;;;;;;3.75;2.40;;;;;;;;;;5095985;28;20047;-49
2022/01/10 08:52:39;;;;;;;3.45;2.22;;;;;;;;;;5111065;28;20027;-49
2022/01/10 08:55:07;;;;;;;5.32;3.13;;;;;;;;;;5110899;28;20099;-48
2022/01/10 08:57:35;;;;;;;6.38;3.28;;;;;;;;;;5091039;28;20349;-47
2022/01/10 09:00:01;;;;;;;5.07;2.53;;;;;;;;;;5091868;28;20081;-48
2022/01/10 09:02:27;;;;;;;4.28;2.83;;;;;;;;;;5103468;28;20097;-49
2022/01/10 09:04:53;;;;;;;3.90;2.35;;;;;;;;;;5101096;28;20019;-50
2022/01/10 09:07:20;;;;;;;3.42;2.10;;;;;;;;;;5089444;28;20056;-47
2022/01/10 09:09:46;;;;;;;3.03;2.10;;;;;;;;;;5089431;28;20028;-48
2022/01/10 09:12:12;;;;;;;3.03;1.90;;;;;;;;;;5090401;28;20027;-48
2022/01/10 09:14:38;;;;;;;3.25;1.90;;;;;;;;;;5088426;28;20055;-48
2022/01/10 09:17:04;;;;;;;2.45;1.88;;;;;;;;;;5090439;28;20094;-52
2022/01/10 09:19:30;;;;;;;2.60;1.85;;;;;;;;;;5083306;28;20020;-47
2022/01/10 09:21:57;;;;;;;1.98;1.45;;;;;;;;;;5087721;28;20517;-48
2022/01/10 09:24:23;;;;;;;2.42;1.77;;;;;;;;;;5086805;28;20032;-49
2022/01/10 09:26:49;;;;;;;1.83;1.20;;;;;;;;;;5087238;28;20375;-51
2022/01/10 09:29:15;;;;;;;3.60;1.45;;;;;;;;;;5089491;28;20471;-52
2022/01/10 09:31:42;;;;;;;2.70;1.80;;;;;;;;;;5089968;28;20107;-49
2022/01/10 09:34:08;;;;;;;3.03;2.17;;;;;;;;;;5089266;28;20027;-48
2022/01/10 09:36:34;;;;;;;2.30;1.42;;;;;;;;;;5070544;28;20554;-49
2022/01/10 09:39:02;;;;;;;1.92;1.40;;;;;;;;;;5088985;28;20067;-48
2022/01/10 09:41:28;;;;;;;2.55;1.50;;;;;;;;;;5088380;28;20024;-49
2022/01/10 09:44:00;;;;;;;5.45;1.95;;;;;;;;;;5089714;28;20032;-49
2022/01/10 09:46:26;;;;;;;2.78;1.95;;;;;;;;;;5067910;28;20446;-49
2022/01/10 09:48:54;;;;;;;3.40;1.85;;;;;;;;;;5068673;28;20695;-48
2022/01/10 09:51:22;;;;;;;3.45;2.15;;;;;;;;;;5068662;28;20506;-49
2022/01/10 09:53:49;;;;;;;3.10;1.98;;;;;;;;;;5068939;28;20024;-50
2022/01/10 09:56:15;;;;;;;3.28;2.35;;;;;;;;;;5076669;28;20023;-49
2022/01/10 09:58:41;;;;;;;3.05;2.35;;;;;;;;;;5089414;28;20032;-51
2022/01/10 10:01:07;;;;;;;5.57;2.40;;;;;;;;;;5089115;28;20024;-49
2022/01/10 10:03:33;;;;;;;3.00;2.13;;;;;;;;;;5083090;28;20029;-51
2022/01/10 10:05:59;;;;;;;3.80;2.08;;;;;;;;;;5068368;28;20025;-48
2022/01/10 10:08:26;;;;;;;2.65;1.83;;;;;;;;;;5086035;28;20036;-49
2022/01/10 10:10:53;;;;;;;3.33;1.70;;;;;;;;;;5085640;28;20483;-49
2022/01/10 10:13:19;;;;;;;1.75;1.42;;;;;;;;;;5088156;28;20055;-48
2022/01/10 10:15:46;;;;;;;1.58;1.48;;;;;;;;;;5088246;28;20641;-49
2022/01/10 10:18:13;;;;;;;2.55;1.60;;;;;;;;;;5090524;28;20024;-48
2022/01/10 10:20:43;;;;;;;2.17;1.35;;;;;;;;;;5100344;28;20384;-50
2022/01/10 10:23:15;;;;;;;1.45;1.30;;;;;;;;;;5085921;28;20468;-49
2022/01/10 10:25:51;;;;;;;2.30;1.40;;;;;;;;;;5087001;28;20103;-50
2022/01/10 10:28:17;;;;;;;1.58;1.10;;;;;;;;;;5082506;28;20028;-48
2022/01/10 10:30:43;;;;;;;1.60;1.20;;;;;;;;;;5109105;28;20111;-49
2022/01/10 10:33:36;;;;;;;2.60;1.48;;;;;;;;;;5108537;28;20019;-50
2022/01/10 10:36:07;;;;;;;2.25;1.60;;;;;;;;;;5103996;28;20039;-48
2022/01/10 10:38:33;;;;;;;3.67;1.73;;;;;;;;;;5099934;28;20415;-49
2022/01/10 10:41:01;;;;;;;2.05;1.40;;;;;;;;;;5082450;28;20020;-48
2022/01/10 10:43:29;;;;;;;2.10;1.58;;;;;;;;;;5084915;28;20029;-48
2022/01/10 10:45:59;;;;;;;2.08;1.63;;;;;;;;;;5081626;28;20449;-48
2022/01/10 10:48:25;;;;;;;2.65;1.60;;;;;;;;;;5084682;28;20400;-49
2022/01/10 10:50:52;;;;;;;2.45;1.40;;;;;;;;;;5096228;28;20036;-49
2022/01/10 10:53:19;;;;;;;2.28;1.17;;;;;;;;;;5089085;28;20036;-49
2022/01/10 10:55:46;;;;;;;1.88;1.20;;;;;;;;;;5086440;28;20119;-52
2022/01/10 10:58:13;;;;;;;2.25;1.23;;;;;;;;;;5099850;28;20525;-51
2022/01/10 11:00:39;;;;;;;2.35;1.27;;;;;;;;;;5108122;28;20506;-50
2022/01/10 11:03:06;;;;;;;3.78;1.83;;;;;;;;;;5089062;28;20107;-49
2022/01/10 11:05:33;;;;;;;3.42;2.00;;;;;;;;;;5087496;28;20034;-50
2022/01/10 11:08:00;;;;;;;3.20;1.90;;;;;;;;;;5087678;28;20032;-49
2022/01/10 11:10:26;;;;;;;3.25;1.73;;;;;;;;;;5086861;28;20024;-51
2022/01/10 11:12:54;;;;;;;2.67;1.60;;;;;;;;;;5086496;28;20036;-48
2022/01/10 11:15:21;;;;;;;3.60;1.73;;;;;;;;;;5106516;28;20036;-51
2022/01/10 11:17:47;;;;;;;2.45;1.52;;;;;;;;;;5096244;28;20034;-49
2022/01/10 11:20:13;;;;;;;1.92;1.50;;;;;;;;;;5087443;28;20028;-48
2022/01/10 11:22:40;;;;;;;4.65;2.40;;;;;;;;;;5068037;28;20462;-50
2022/01/10 11:25:18;;;;;;;4.68;2.70;;;;;;;;;;5086536;28;20016;-49
2022/01/10 11:27:44;;;;;;;5.80;3.30;;;;;;;;;;5087124;28;20109;-51
2022/01/10 11:30:31;;;;;;;5.63;3.22;;;;;;;;;;5085749;28;20091;-48
2022/01/10 11:32:57;;;;;;;4.53;2.92;;;;;;;;;;5051859;28;20043;-50
2022/01/10 11:35:28;;;;;;;4.35;2.67;;;;;;;;;;5084364;28;20093;-49
2022/01/10 11:37:54;;;;;;;3.10;2.10;;;;;;;;;;5089734;28;20080;-52
2022/01/10 11:40:20;;;;;;;3.30;1.98;;;;;;;;;;5096198;28;20061;-49
2022/01/10 11:42:47;;;;;;;4.20;2.10;;;;;;;;;;5089035;28;20035;-49
2022/01/10 11:45:14;;;;;;;2.75;1.98;;;;;;;;;;5106282;28;20094;-51
2022/01/10 11:47:59;;;;;;;2.38;1.60;;;;;;;;;;5085113;28;20104;-52
2022/01/10 11:50:27;;;;;;;2.75;1.63;;;;;;;;;;5085768;28;20106;-50
2022/01/10 11:52:57;;;;;;;2.47;1.65;;;;;;;;;;5085035;28;20590;-48
2022/01/10 11:55:33;;;;;;;1.40;1.10;;;;;;;;;;5082995;28;20103;-49
2022/01/10 11:58:03;;;;;;;1.40;1.10;;;;;;;;;;5065242;28;20040;-50
2022/01/10 12:00:36;;;;;;;1.90;1.20;;;;;;;;;;5065022;28;20043;-49
2022/01/10 12:03:02;;;;;;;2.53;1.42;;;;;;;;;;5083788;28;20410;-49
2022/01/10 12:05:28;;;;;;;1.30;1.10;;;;;;;;;;5086885;28;20568;-48
2022/01/10 12:07:54;;;;;;;2.00;1.42;;;;;;;;;;5064775;28;20351;-49
2022/01/10 12:10:20;;;;;;;2.13;1.38;;;;;;;;;;5082491;28;20467;-49
2022/01/10 12:12:50;;;;;;;1.92;1.48;;;;;;;;;;5082165;28;20036;-49
2022/01/10 12:15:16;;;;;;;2.45;1.35;;;;;;;;;;5065470;28;20024;-48
2022/01/10 12:17:43;;;;;;;1.65;1.10;;;;;;;;;;5064533;28;20056;-51
2022/01/10 12:20:09;;;;;;;3.10;1.77;;;;;;;;;;5080351;28;20410;-49
2022/01/10 12:22:35;;;;;;;8.23;3.80;;;;;;;;;;5081067;28;20030;-48
2022/01/10 12:25:01;;;;;;;8.80;4.35;;;;;;;;;;5081289;28;20090;-51
2022/01/10 12:27:27;;;;;;;7.38;3.72;;;;;;;;;;5063370;28;20398;-51
2022/01/10 12:29:54;;;;;;;6.32;3.63;;;;;;;;;;5083218;28;20370;-51
2022/01/10 12:32:20;;;;;;;6.20;2.95;;;;;;;;;;5082474;28;20396;-50
2022/01/10 12:34:46;;;;;;;3.67;2.42;;;;;;;;;;5083349;28;20024;-49
2022/01/10 12:37:12;;;;;;;3.70;2.05;;;;;;;;;;5064029;28;20016;-49
2022/01/10 12:39:39;;;;;;;3.80;1.90;;;;;;;;;;5071143;28;20055;-49
2022/01/10 12:42:05;;;;;;;2.45;1.52;;;;;;;;;;5076873;28;20032;-52
2022/01/10 12:44:32;;;;;;;2.10;1.40;;;;;;;;;;5075231;28;20032;-49
2022/01/10 12:46:59;;;;;;;2.40;1.40;;;;;;;;;;5083910;28;20031;-48
2022/01/10 12:49:26;;;;;;;1.25;1.13;;;;;;;;;;5084045;28;20103;-49
2022/01/10 12:51:54;;;;;;;2.45;1.42;;;;;;;;;;5083074;28;20293;-51
2022/01/10 12:54:26;;;;;;;2.42;1.05;;;;;;;;;;5085809;28;20024;-52
2022/01/10 12:56:53;;;;;;;1.20;1.00;;;;;;;;;;5086818;28;20077;-48
2022/01/10 12:59:21;;;;;;;2.42;1.30;;;;;;;;;;5085002;28;20107;-48
2022/01/10 13:01:48;;;;;;;0.82;0.77;;;;;;;;;;5088424;28;20060;-49
2022/01/10 13:04:14;;;;;;;1.23;1.10;;;;;;;;;;5090025;28;20558;-50
2022/01/10 13:06:45;;;;;;;1.38;1.02;;;;;;;;;;5094970;28;20023;-51
2022/01/10 13:09:11;;;;;;;1.08;0.98;;;;;;;;;;5086153;28;20020;-48
2022/01/10 13:14:39;;;;;;;1.40;1.00;;;;;;;;;;5056335;28;20403;-48
2022/01/10 13:17:09;;;;;;;0.80;0.80;;;;;;;;;;5092214;28;20093;-50
2022/01/10 13:19:37;;;;;;;1.67;1.30;;;;;;;;;;5085739;28;20016;-50
2022/01/10 13:22:07;;;;;;;1.40;1.30;;;;;;;;;;5084979;28;20443;-48
2022/01/10 13:24:36;;;;;;;1.48;1.20;;;;;;;;;;5086128;28;20035;-48
2022/01/10 13:27:05;;;;;;;1.88;1.58;;;;;;;;;;5086252;28;20054;-49
2022/01/10 13:29:37;;;;;;;4.07;2.63;;;;;;;;;;5086381;28;20517;-49
2022/01/10 13:32:16;;;;;;;2.90;2.20;;;;;;;;;;5091966;28;20024;-49
2022/01/10 13:34:44;;;;;;;3.13;2.25;;;;;;;;;;5085067;28;20028;-49
2022/01/10 13:37:10;;;;;;;3.70;2.03;;;;;;;;;;5084471;28;20097;-49
2022/01/10 13:39:36;;;;;;;3.28;2.47;;;;;;;;;;5085992;28;20036;-52
2022/01/10 13:42:07;;;;;;;3.75;2.45;;;;;;;;;;5066411;28;20036;-50
2022/01/10 13:45:00;;;;;;;2.85;1.85;;;;;;;;;;5084233;28;20024;-52
2022/01/10 13:47:26;;;;;;;2.50;1.88;;;;;;;;;;5102357;28;20375;-49
2022/01/10 13:49:52;;;;;;;1.73;1.50;;;;;;;;;;5082656;28;20020;-50
2022/01/10 13:52:18;;;;;;;1.90;1.58;;;;;;;;;;5066691;28;20021;-52
2022/01/10 13:54:45;;;;;;;2.53;1.52;;;;;;;;;;5085776;28;20028;-49
2022/01/10 13:57:22;;;;;;;1.85;1.40;;;;;;;;;;5085347;28;20540;-52
2022/01/10 14:00:09;;;;;;;1.40;1.20;;;;;;;;;;5072819;28;20020;-51
2022/01/10 14:02:39;;;;;;;1.98;1.13;;;;;;;;;;5097112;28;20536;-52
2022/01/10 14:05:21;;;;;;;1.67;1.00;;;;;;;;;;5096426;28;20036;-51
2022/01/10 14:07:47;;;;;;;1.33;0.98;;;;;;;;;;5056126;28;20028;-50
2022/01/10 14:10:13;;;;;;;1.73;1.33;;;;;;;;;;5084561;28;20024;-51
2022/01/10 14:12:39;;;;;;;1.90;1.00;;;;;;;;;;5086325;28;20469;-49
2022/01/10 14:15:05;;;;;;;2.25;1.40;;;;;;;;;;5087104;28;20040;-50
2022/01/10 14:17:31;;;;;;;1.65;0.90;;;;;;;;;;5078771;28;20498;-48
2022/01/10 14:19:58;;;;;;;2.13;1.20;;;;;;;;;;5080303;28;20039;-49
2022/01/10 14:22:25;;;;;;;1.45;1.02;;;;;;;;;;5082738;28;20036;-49
2022/01/10 14:24:51;;;;;;;1.70;0.90;;;;;;;;;;5086680;28;20028;-52
2022/01/10 14:27:17;;;;;;;1.65;0.90;;;;;;;;;;5091172;28;20093;-48
2022/01/10 14:29:43;;;;;;;1.58;0.95;;;;;;;;;;5069716;28;20063;-48
2022/01/10 14:32:09;;;;;;;1.08;0.80;;;;;;;;;;5076872;28;20048;-47
2022/01/10 14:34:36;;;;;;;1.65;0.93;;;;;;;;;;5095762;28;20045;-48
2022/01/10 14:37:03;;;;;;;1.05;0.93;;;;;;;;;;5074019;28;20032;-50
2022/01/10 14:39:29;;;;;;;1.48;0.95;;;;;;;;;;5074487;28;20034;-49
2022/01/10 14:41:57;;;;;;;2.60;2.00;;;;;;;;;;5072849;28;20630;-50
2022/01/10 14:44:24;;;;;;;3.28;1.90;;;;;;;;;;5088428;28;20031;-49
2022/01/10 14:46:50;;;;;;;2.15;1.80;;;;;;;;;;5096066;28;20059;-48
2022/01/10 14:49:16;;;;;;;2.08;1.67;;;;;;;;;;5069920;28;20024;-48
2022/01/10 14:51:42;;;;;;;2.22;1.40;;;;;;;;;;5104027;28;20118;-51
2022/01/10 14:54:08;;;;;;;1.70;1.20;;;;;;;;;;5073524;28;20031;-51